Depew, New York
Current Conditions -  °F | °C
As of 12:54 AM on Saturday 20 Dec 2014 (Local Time) from KBUF Reporting Station
Scattered Clouds Scattered Clouds  
Wind Chill: 20°   Ceiling: Unl
Heat Index: 27°   Visibility: 10mi
Dew Point: 21°   Wind: 6mph
Humidity: 78%   Direction: 340°NNW
Pressure: 30.23"   Gusts: NA
Location:  42.9°N, 78.69°W
Report Text: KBUF 200554Z 34005KT 10SM SCT025 M03/M06 A3023 RMK AO2 SLP248 T10281061 11017 21028 58009
Loading
Personal Weather Stations






























Interactive Weather Map New forecast layout! Learn more

10-Day Weather Forecast

Advertisements
Track Severe Weather on mobile